Parlin Pond Township, Maine
Current Conditions -  °F | °C
As of 9:00 AM on Thursday 27 Nov 2014 (Local Time) from CYSC Reporting Station
Broken Clouds Broken Clouds  
Wind Chill: 17°   Ceiling: 2800
Heat Index: 23°   Visibility: 9mi
Dew Point: 19°   Wind: 5mph
Humidity: 86%   Direction: 360°N
Pressure: 29.95"   Gusts: NA
Location:  45.7142°N, 70.304°W
Report Text: CYSC 271400Z AUTO 36004KT 320V040 9SM SCT020 BKN028 M05/M07 A2995 RMK SLP155
Loading
Personal Weather Stations






























Interactive Weather Map New forecast layout! Learn more

10-Day Weather Forecast

Advertisements
Track Severe Weather on mobile